sensor_id;sensor_type;location;lat;lon;timestamp;temperature;humidity
4820;DHT22;2424;49.696;6.630;2023-06-26T00:01:41;20.60;99.90
4820;DHT22;2424;49.696;6.630;2023-06-26T00:07:03;20.50;99.90
4820;DHT22;2424;49.696;6.630;2023-06-26T00:12:25;20.40;99.90
4820;DHT22;2424;49.696;6.630;2023-06-26T00:17:49;20.40;99.90
4820;DHT22;2424;49.696;6.630;2023-06-26T00:23:11;20.30;99.90
4820;DHT22;2424;49.696;6.630;2023-06-26T00:28:37;20.10;99.90
4820;DHT22;2424;49.696;6.630;2023-06-26T00:34:00;20.00;99.90
4820;DHT22;2424;49.696;6.630;2023-06-26T00:39:22;20.00;99.90
4820;DHT22;2424;49.696;6.630;2023-06-26T00:44:46;19.90;99.90
4820;DHT22;2424;49.696;6.630;2023-06-26T00:50:10;19.90;99.90
4820;DHT22;2424;49.696;6.630;2023-06-26T00:55:32;19.90;99.90
4820;DHT22;2424;49.696;6.630;2023-06-26T01:00:54;19.80;99.90
4820;DHT22;2424;49.696;6.630;2023-06-26T01:06:19;19.80;99.90
4820;DHT22;2424;49.696;6.630;2023-06-26T01:11:41;19.80;99.90
4820;DHT22;2424;49.696;6.630;2023-06-26T01:17:04;19.70;99.90
4820;DHT22;2424;49.696;6.630;2023-06-26T01:22:47;19.70;99.90
4820;DHT22;2424;49.696;6.630;2023-06-26T01:28:12;19.60;99.90
4820;DHT22;2424;49.696;6.630;2023-06-26T01:33:38;19.50;99.90
4820;DHT22;2424;49.696;6.630;2023-06-26T01:39:00;19.30;99.90
4820;DHT22;2424;49.696;6.630;2023-06-26T01:44:26;19.30;99.90
4820;DHT22;2424;49.696;6.630;2023-06-26T01:49:54;19.20;99.90
4820;DHT22;2424;49.696;6.630;2023-06-26T01:55:24;19.10;99.90
4820;DHT22;2424;49.696;6.630;2023-06-26T02:00:49;19.00;99.90
4820;DHT22;2424;49.696;6.630;2023-06-26T02:06:11;18.90;99.90
4820;DHT22;2424;49.696;6.630;2023-06-26T02:11:34;18.90;99.90
4820;DHT22;2424;49.696;6.630;2023-06-26T02:16:57;18.80;99.90
4820;DHT22;2424;49.696;6.630;2023-06-26T02:22:20;18.80;99.90
4820;DHT22;2424;49.696;6.630;2023-06-26T02:27:42;18.80;99.90
4820;DHT22;2424;49.696;6.630;2023-06-26T02:33:06;18.70;99.90
4820;DHT22;2424;49.696;6.630;2023-06-26T02:38:27;18.60;99.90
4820;DHT22;2424;49.696;6.630;2023-06-26T02:43:49;18.60;99.90
4820;DHT22;2424;49.696;6.630;2023-06-26T02:49:13;18.50;99.90
4820;DHT22;2424;49.696;6.630;2023-06-26T02:54:35;18.40;99.90
4820;DHT22;2424;49.696;6.630;2023-06-26T02:59:57;18.50;99.90
4820;DHT22;2424;49.696;6.630;2023-06-26T03:05:20;18.30;99.90
4820;DHT22;2424;49.696;6.630;2023-06-26T03:10:44;18.30;99.90
4820;DHT22;2424;49.696;6.630;2023-06-26T03:16:06;18.20;99.90
4820;DHT22;2424;49.696;6.630;2023-06-26T03:21:29;18.10;99.90
4820;DHT22;2424;49.696;6.630;2023-06-26T03:26:51;18.00;99.90
4820;DHT22;2424;49.696;6.630;2023-06-26T03:32:13;18.00;99.90
4820;DHT22;2424;49.696;6.630;2023-06-26T03:37:37;17.90;99.90
4820;DHT22;2424;49.696;6.630;2023-06-26T03:42:59;17.90;99.90
4820;DHT22;2424;49.696;6.630;2023-06-26T03:48:21;17.90;99.90
4820;DHT22;2424;49.696;6.630;2023-06-26T03:53:45;17.90;99.90
4820;DHT22;2424;49.696;6.630;2023-06-26T03:59:07;17.90;99.90
4820;DHT22;2424;49.696;6.630;2023-06-26T04:04:29;17.90;99.90
4820;DHT22;2424;49.696;6.630;2023-06-26T04:09:52;17.90;99.90
4820;DHT22;2424;49.696;6.630;2023-06-26T04:15:14;17.90;99.90
4820;DHT22;2424;49.696;6.630;2023-06-26T04:20:39;17.90;99.90
4820;DHT22;2424;49.696;6.630;2023-06-26T04:26:03;18.00;99.90
4820;DHT22;2424;49.696;6.630;2023-06-26T04:31:25;18.10;99.90
4820;DHT22;2424;49.696;6.630;2023-06-26T04:36:47;18.10;99.90
4820;DHT22;2424;49.696;6.630;2023-06-26T04:42:12;18.20;99.90
4820;DHT22;2424;49.696;6.630;2023-06-26T04:47:34;18.20;99.90
4820;DHT22;2424;49.696;6.630;2023-06-26T04:52:56;18.20;99.90
4820;DHT22;2424;49.696;6.630;2023-06-26T04:58:20;18.20;99.90
4820;DHT22;2424;49.696;6.630;2023-06-26T05:03:42;18.30;99.90
4820;DHT22;2424;49.696;6.630;2023-06-26T05:09:05;18.30;99.90
4820;DHT22;2424;49.696;6.630;2023-06-26T05:14:29;18.40;99.90
4820;DHT22;2424;49.696;6.630;2023-06-26T05:19:51;18.50;99.90
4820;DHT22;2424;49.696;6.630;2023-06-26T05:25:13;18.50;99.90
4820;DHT22;2424;49.696;6.630;2023-06-26T05:30:38;18.60;99.90
4820;DHT22;2424;49.696;6.630;2023-06-26T05:36:00;18.60;99.90
4820;DHT22;2424;49.696;6.630;2023-06-26T05:41:25;18.70;99.90
4820;DHT22;2424;49.696;6.630;2023-06-26T05:46:49;18.80;99.90
4820;DHT22;2424;49.696;6.630;2023-06-26T05:52:12;18.90;99.90
4820;DHT22;2424;49.696;6.630;2023-06-26T05:57:35;19.00;99.90
4820;DHT22;2424;49.696;6.630;2023-06-26T06:03:00;19.10;99.90
4820;DHT22;2424;49.696;6.630;2023-06-26T06:08:22;19.20;99.90
4820;DHT22;2424;49.696;6.630;2023-06-26T06:13:44;19.30;99.90
4820;DHT22;2424;49.696;6.630;2023-06-26T06:19:08;19.50;99.90
4820;DHT22;2424;49.696;6.630;2023-06-26T06:24:32;19.60;99.90
4820;DHT22;2424;49.696;6.630;2023-06-26T06:29:53;19.80;99.90
4820;DHT22;2424;49.696;6.630;2023-06-26T06:35:17;19.90;99.90
4820;DHT22;2424;49.696;6.630;2023-06-26T06:40:39;20.00;99.90
4820;DHT22;2424;49.696;6.630;2023-06-26T06:46:01;20.20;99.90
4820;DHT22;2424;49.696;6.630;2023-06-26T06:51:24;20.60;99.90
4820;DHT22;2424;49.696;6.630;2023-06-26T06:56:46;20.60;99.90
4820;DHT22;2424;49.696;6.630;2023-06-26T07:02:08;20.60;99.90
4820;DHT22;2424;49.696;6.630;2023-06-26T07:07:32;20.80;99.90
4820;DHT22;2424;49.696;6.630;2023-06-26T07:12:55;20.90;99.90
4820;DHT22;2424;49.696;6.630;2023-06-26T07:18:19;21.00;99.90
4820;DHT22;2424;49.696;6.630;2023-06-26T07:23:43;21.00;99.90
4820;DHT22;2424;49.696;6.630;2023-06-26T07:29:05;21.10;99.90
4820;DHT22;2424;49.696;6.630;2023-06-26T07:34:27;21.10;99.90
4820;DHT22;2424;49.696;6.630;2023-06-26T07:39:50;21.40;99.90
4820;DHT22;2424;49.696;6.630;2023-06-26T07:45:12;21.30;99.90
4820;DHT22;2424;49.696;6.630;2023-06-26T07:50:34;21.40;99.90
4820;DHT22;2424;49.696;6.630;2023-06-26T07:55:58;21.50;99.90
4820;DHT22;2424;49.696;6.630;2023-06-26T08:01:20;21.60;99.90
4820;DHT22;2424;49.696;6.630;2023-06-26T08:06:43;21.80;99.90
4820;DHT22;2424;49.696;6.630;2023-06-26T08:12:07;22.00;99.90
4820;DHT22;2424;49.696;6.630;2023-06-26T08:17:29;21.90;99.90
4820;DHT22;2424;49.696;6.630;2023-06-26T08:22:51;22.10;99.90
4820;DHT22;2424;49.696;6.630;2023-06-26T08:28:16;22.30;99.90
4820;DHT22;2424;49.696;6.630;2023-06-26T08:33:38;22.30;99.90
4820;DHT22;2424;49.696;6.630;2023-06-26T08:39:00;22.60;99.90
4820;DHT22;2424;49.696;6.630;2023-06-26T08:44:25;22.50;99.90
4820;DHT22;2424;49.696;6.630;2023-06-26T08:49:50;22.60;99.90
4820;DHT22;2424;49.696;6.630;2023-06-26T08:55:15;22.70;99.90
4820;DHT22;2424;49.696;6.630;2023-06-26T09:00:39;22.90;99.90
4820;DHT22;2424;49.696;6.630;2023-06-26T09:06:01;22.90;99.90
4820;DHT22;2424;49.696;6.630;2023-06-26T09:11:23;23.00;99.90
4820;DHT22;2424;49.696;6.630;2023-06-26T09:16:46;23.10;99.90
4820;DHT22;2424;49.696;6.630;2023-06-26T09:22:11;23.20;99.90
4820;DHT22;2424;49.696;6.630;2023-06-26T09:27:35;23.20;99.90
4820;DHT22;2424;49.696;6.630;2023-06-26T09:33:13;23.30;99.90
4820;DHT22;2424;49.696;6.630;2023-06-26T09:38:35;23.50;99.90
4820;DHT22;2424;49.696;6.630;2023-06-26T09:44:02;23.40;99.90
4820;DHT22;2424;49.696;6.630;2023-06-26T09:49:25;23.50;99.90
4820;DHT22;2424;49.696;6.630;2023-06-26T09:54:47;23.60;99.90
4820;DHT22;2424;49.696;6.630;2023-06-26T10:00:11;23.40;99.90
4820;DHT22;2424;49.696;6.630;2023-06-26T10:05:34;23.70;99.90
4820;DHT22;2424;49.696;6.630;2023-06-26T10:10:57;23.70;99.90
4820;DHT22;2424;49.696;6.630;2023-06-26T10:16:23;23.90;99.90
4820;DHT22;2424;49.696;6.630;2023-06-26T10:21:48;24.00;99.90
4820;DHT22;2424;49.696;6.630;2023-06-26T10:27:15;24.10;99.90
4820;DHT22;2424;49.696;6.630;2023-06-26T10:32:38;24.00;99.90
4820;DHT22;2424;49.696;6.630;2023-06-26T10:38:03;24.30;99.90
4820;DHT22;2424;49.696;6.630;2023-06-26T10:43:30;24.20;99.70
4820;DHT22;2424;49.696;6.630;2023-06-26T10:48:59;24.20;99.80
4820;DHT22;2424;49.696;6.630;2023-06-26T10:54:22;24.30;99.90
4820;DHT22;2424;49.696;6.630;2023-06-26T10:59:45;24.50;98.60
4820;DHT22;2424;49.696;6.630;2023-06-26T11:05:07;24.50;97.50
4820;DHT22;2424;49.696;6.630;2023-06-26T11:10:48;24.40;97.40
4820;DHT22;2424;49.696;6.630;2023-06-26T11:16:11;24.50;93.70
4820;DHT22;2424;49.696;6.630;2023-06-26T11:21:34;24.40;92.20
4820;DHT22;2424;49.696;6.630;2023-06-26T11:27:00;24.50;93.00
4820;DHT22;2424;49.696;6.630;2023-06-26T11:32:23;24.50;93.80
4820;DHT22;2424;49.696;6.630;2023-06-26T11:37:47;24.90;92.00
4820;DHT22;2424;49.696;6.630;2023-06-26T11:43:11;24.90;94.40
4820;DHT22;2424;49.696;6.630;2023-06-26T11:48:34;24.80;92.70
4820;DHT22;2424;49.696;6.630;2023-06-26T11:53:56;24.80;92.50
4820;DHT22;2424;49.696;6.630;2023-06-26T11:59:20;24.80;92.70
4820;DHT22;2424;49.696;6.630;2023-06-26T12:04:43;24.90;92.80
4820;DHT22;2424;49.696;6.630;2023-06-26T12:10:06;24.90;90.70
4820;DHT22;2424;49.696;6.630;2023-06-26T12:15:30;25.00;88.20
4820;DHT22;2424;49.696;6.630;2023-06-26T12:20:52;24.90;86.80
4820;DHT22;2424;49.696;6.630;2023-06-26T12:26:17;25.10;88.90
4820;DHT22;2424;49.696;6.630;2023-06-26T12:31:42;25.30;88.70
4820;DHT22;2424;49.696;6.630;2023-06-26T12:37:06;25.10;88.30
4820;DHT22;2424;49.696;6.630;2023-06-26T12:42:33;25.20;87.90
4820;DHT22;2424;49.696;6.630;2023-06-26T12:48:07;25.20;88.30
4820;DHT22;2424;49.696;6.630;2023-06-26T12:53:29;25.00;87.20
4820;DHT22;2424;49.696;6.630;2023-06-26T12:58:51;25.50;87.80
4820;DHT22;2424;49.696;6.630;2023-06-26T13:04:14;25.30;87.60
4820;DHT22;2424;49.696;6.630;2023-06-26T13:09:37;25.10;82.20
4820;DHT22;2424;49.696;6.630;2023-06-26T13:14:59;25.30;85.10
4820;DHT22;2424;49.696;6.630;2023-06-26T13:20:22;25.30;82.60
4820;DHT22;2424;49.696;6.630;2023-06-26T13:25:44;25.50;82.10
4820;DHT22;2424;49.696;6.630;2023-06-26T13:31:06;25.10;80.00
4820;DHT22;2424;49.696;6.630;2023-06-26T13:36:30;25.40;83.10
4820;DHT22;2424;49.696;6.630;2023-06-26T13:41:54;25.40;85.00
4820;DHT22;2424;49.696;6.630;2023-06-26T13:47:16;25.20;86.00
4820;DHT22;2424;49.696;6.630;2023-06-26T13:52:39;25.30;86.00
4820;DHT22;2424;49.696;6.630;2023-06-26T13:58:01;25.20;86.80
4820;DHT22;2424;49.696;6.630;2023-06-26T14:03:26;25.10;84.40
4820;DHT22;2424;49.696;6.630;2023-06-26T14:08:50;25.10;83.60
4820;DHT22;2424;49.696;6.630;2023-06-26T14:14:12;25.50;86.90
4820;DHT22;2424;49.696;6.630;2023-06-26T14:19:34;25.90;88.20
4820;DHT22;2424;49.696;6.630;2023-06-26T14:24:58;25.10;88.70
4820;DHT22;2424;49.696;6.630;2023-06-26T14:30:20;25.20;90.50
4820;DHT22;2424;49.696;6.630;2023-06-26T14:35:42;25.30;89.30
4820;DHT22;2424;49.696;6.630;2023-06-26T14:41:05;25.20;86.40
4820;DHT22;2424;49.696;6.630;2023-06-26T14:46:27;25.20;86.00
4820;DHT22;2424;49.696;6.630;2023-06-26T14:51:49;25.10;87.10
4820;DHT22;2424;49.696;6.630;2023-06-26T14:57:12;25.60;88.60
4820;DHT22;2424;49.696;6.630;2023-06-26T15:02:34;25.30;88.00
4820;DHT22;2424;49.696;6.630;2023-06-26T15:07:56;24.90;87.40
4820;DHT22;2424;49.696;6.630;2023-06-26T15:13:20;24.70;88.50
4820;DHT22;2424;49.696;6.630;2023-06-26T15:18:42;25.20;87.90
4820;DHT22;2424;49.696;6.630;2023-06-26T15:24:04;25.10;87.60
4820;DHT22;2424;49.696;6.630;2023-06-26T15:29:28;24.90;89.00
4820;DHT22;2424;49.696;6.630;2023-06-26T15:34:49;24.60;87.50
4820;DHT22;2424;49.696;6.630;2023-06-26T15:40:12;24.90;89.00
4820;DHT22;2424;49.696;6.630;2023-06-26T15:45:36;24.90;88.30
4820;DHT22;2424;49.696;6.630;2023-06-26T15:50:58;24.70;88.70
4820;DHT22;2424;49.696;6.630;2023-06-26T15:56:20;24.90;87.70
4820;DHT22;2424;49.696;6.630;2023-06-26T16:01:43;25.00;86.90
4820;DHT22;2424;49.696;6.630;2023-06-26T16:07:06;25.20;88.50
4820;DHT22;2424;49.696;6.630;2023-06-26T16:12:28;24.80;87.20
4820;DHT22;2424;49.696;6.630;2023-06-26T16:17:51;24.60;86.50
4820;DHT22;2424;49.696;6.630;2023-06-26T16:23:13;24.50;87.20
4820;DHT22;2424;49.696;6.630;2023-06-26T16:28:38;24.60;86.00
4820;DHT22;2424;49.696;6.630;2023-06-26T16:34:02;24.40;86.30
4820;DHT22;2424;49.696;6.630;2023-06-26T16:39:24;24.80;87.90
4820;DHT22;2424;49.696;6.630;2023-06-26T16:44:46;24.90;85.90
4820;DHT22;2424;49.696;6.630;2023-06-26T16:50:10;24.60;85.70
4820;DHT22;2424;49.696;6.630;2023-06-26T16:55:32;24.70;86.80
4820;DHT22;2424;49.696;6.630;2023-06-26T17:00:54;24.90;86.70
4820;DHT22;2424;49.696;6.630;2023-06-26T17:06:17;24.70;87.20
4820;DHT22;2424;49.696;6.630;2023-06-26T17:11:39;24.10;86.40
4820;DHT22;2424;49.696;6.630;2023-06-26T17:17:02;24.10;87.10
4820;DHT22;2424;49.696;6.630;2023-06-26T17:22:26;23.90;87.90
4820;DHT22;2424;49.696;6.630;2023-06-26T17:27:48;23.60;86.40
4820;DHT22;2424;49.696;6.630;2023-06-26T17:33:10;23.70;87.30
4820;DHT22;2424;49.696;6.630;2023-06-26T17:38:34;23.50;86.30
4820;DHT22;2424;49.696;6.630;2023-06-26T17:43:57;23.30;86.80
4820;DHT22;2424;49.696;6.630;2023-06-26T17:49:19;23.20;86.80
4820;DHT22;2424;49.696;6.630;2023-06-26T17:54:42;23.10;86.60
4820;DHT22;2424;49.696;6.630;2023-06-26T18:00:06;23.00;86.70
4820;DHT22;2424;49.696;6.630;2023-06-26T18:05:29;23.00;87.30
4820;DHT22;2424;49.696;6.630;2023-06-26T18:10:52;22.90;87.10
4820;DHT22;2424;49.696;6.630;2023-06-26T18:16:15;22.80;86.80
4820;DHT22;2424;49.696;6.630;2023-06-26T18:21:37;22.60;85.40
4820;DHT22;2424;49.696;6.630;2023-06-26T18:27:01;22.50;86.40
4820;DHT22;2424;49.696;6.630;2023-06-26T18:32:23;22.50;86.80
4820;DHT22;2424;49.696;6.630;2023-06-26T18:37:45;22.60;88.50
4820;DHT22;2424;49.696;6.630;2023-06-26T18:43:08;22.50;87.60
4820;DHT22;2424;49.696;6.630;2023-06-26T18:48:30;22.40;87.80
4820;DHT22;2424;49.696;6.630;2023-06-26T18:53:52;22.40;88.90
4820;DHT22;2424;49.696;6.630;2023-06-26T18:59:17;22.40;88.50
4820;DHT22;2424;49.696;6.630;2023-06-26T19:04:39;22.20;88.40
4820;DHT22;2424;49.696;6.630;2023-06-26T19:10:01;22.10;88.90
4820;DHT22;2424;49.696;6.630;2023-06-26T19:15:24;22.00;89.90
4820;DHT22;2424;49.696;6.630;2023-06-26T19:20:46;21.80;90.10
4820;DHT22;2424;49.696;6.630;2023-06-26T19:26:08;21.70;90.30
4820;DHT22;2424;49.696;6.630;2023-06-26T19:31:32;21.70;90.70
4820;DHT22;2424;49.696;6.630;2023-06-26T19:36:54;21.50;90.30
4820;DHT22;2424;49.696;6.630;2023-06-26T19:42:16;21.50;90.50
4820;DHT22;2424;49.696;6.630;2023-06-26T19:47:39;21.50;90.50
4820;DHT22;2424;49.696;6.630;2023-06-26T19:53:01;21.30;90.60
4820;DHT22;2424;49.696;6.630;2023-06-26T19:58:23;21.30;90.70
4820;DHT22;2424;49.696;6.630;2023-06-26T20:03:47;21.20;90.60
4820;DHT22;2424;49.696;6.630;2023-06-26T20:09:09;21.20;90.60
4820;DHT22;2424;49.696;6.630;2023-06-26T20:14:31;21.10;90.60
4820;DHT22;2424;49.696;6.630;2023-06-26T20:19:54;21.10;90.70
4820;DHT22;2424;49.696;6.630;2023-06-26T20:25:16;21.00;90.70
4820;DHT22;2424;49.696;6.630;2023-06-26T20:30:38;20.90;91.00
4820;DHT22;2424;49.696;6.630;2023-06-26T20:36:01;20.80;91.10
4820;DHT22;2424;49.696;6.630;2023-06-26T20:41:24;20.80;91.20
4820;DHT22;2424;49.696;6.630;2023-06-26T20:46:46;20.70;91.30
4820;DHT22;2424;49.696;6.630;2023-06-26T20:52:18;20.70;91.30
4820;DHT22;2424;49.696;6.630;2023-06-26T20:57:40;20.70;91.40
4820;DHT22;2424;49.696;6.630;2023-06-26T21:03:03;20.60;91.60
4820;DHT22;2424;49.696;6.630;2023-06-26T21:08:26;20.60;91.90
4820;DHT22;2424;49.696;6.630;2023-06-26T21:13:48;20.50;92.10
4820;DHT22;2424;49.696;6.630;2023-06-26T21:19:10;20.50;92.30
4820;DHT22;2424;49.696;6.630;2023-06-26T21:24:33;20.30;92.10
4820;DHT22;2424;49.696;6.630;2023-06-26T21:29:55;20.30;92.20
4820;DHT22;2424;49.696;6.630;2023-06-26T21:35:19;20.20;92.40
4820;DHT22;2424;49.696;6.630;2023-06-26T21:40:42;20.20;92.60
4820;DHT22;2424;49.696;6.630;2023-06-26T21:46:04;20.20;92.80
4820;DHT22;2424;49.696;6.630;2023-06-26T21:51:26;20.20;93.20
4820;DHT22;2424;49.696;6.630;2023-06-26T21:56:49;20.10;93.10
4820;DHT22;2424;49.696;6.630;2023-06-26T22:02:11;20.20;93.50
4820;DHT22;2424;49.696;6.630;2023-06-26T22:07:33;20.10;94.60
4820;DHT22;2424;49.696;6.630;2023-06-26T22:12:57;20.10;94.90
4820;DHT22;2424;49.696;6.630;2023-06-26T22:18:19;19.90;95.10
4820;DHT22;2424;49.696;6.630;2023-06-26T22:23:40;19.80;95.50
4820;DHT22;2424;49.696;6.630;2023-06-26T22:29:04;19.80;95.60
4820;DHT22;2424;49.696;6.630;2023-06-26T22:34:26;19.70;96.20
4820;DHT22;2424;49.696;6.630;2023-06-26T22:39:48;19.50;96.30
4820;DHT22;2424;49.696;6.630;2023-06-26T22:45:12;19.30;96.80
4820;DHT22;2424;49.696;6.630;2023-06-26T22:50:34;19.20;96.90
4820;DHT22;2424;49.696;6.630;2023-06-26T22:55:55;19.10;97.40
4820;DHT22;2424;49.696;6.630;2023-06-26T23:01:19;19.00;97.70
4820;DHT22;2424;49.696;6.630;2023-06-26T23:06:41;18.90;98.00
4820;DHT22;2424;49.696;6.630;2023-06-26T23:12:05;18.80;98.80
4820;DHT22;2424;49.696;6.630;2023-06-26T23:17:28;18.70;99.10
4820;DHT22;2424;49.696;6.630;2023-06-26T23:22:50;18.70;99.80
4820;DHT22;2424;49.696;6.630;2023-06-26T23:28:12;18.50;99.90
4820;DHT22;2424;49.696;6.630;2023-06-26T23:33:36;18.50;99.90
4820;DHT22;2424;49.696;6.630;2023-06-26T23:39:01;18.40;99.90
4820;DHT22;2424;49.696;6.630;2023-06-26T23:44:25;18.30;99.90
4820;DHT22;2424;49.696;6.630;2023-06-26T23:49:48;18.20;99.90
4820;DHT22;2424;49.696;6.630;2023-06-26T23:55:11;18.10;99.90
